sensor_id;sensor_type;location;lat;lon;timestamp;temperature;humidity
69895;DHT22;57172;52.034;5.090;2024-02-04T00:02:10;10.40;99.90
69895;DHT22;57172;52.034;5.090;2024-02-04T00:04:40;10.40;99.90
69895;DHT22;57172;52.034;5.090;2024-02-04T00:07:08;10.50;99.90
69895;DHT22;57172;52.034;5.090;2024-02-04T00:09:35;10.50;99.90
69895;DHT22;57172;52.034;5.090;2024-02-04T00:12:03;10.50;99.90
69895;DHT22;57172;52.034;5.090;2024-02-04T00:14:31;10.60;99.90
69895;DHT22;57172;52.034;5.090;2024-02-04T00:16:58;10.60;99.90
69895;DHT22;57172;52.034;5.090;2024-02-04T00:19:25;10.60;99.90
69895;DHT22;57172;52.034;5.090;2024-02-04T00:21:53;10.70;99.90
69895;DHT22;57172;52.034;5.090;2024-02-04T00:24:20;10.70;99.90
69895;DHT22;57172;52.034;5.090;2024-02-04T00:26:47;10.70;99.90
69895;DHT22;57172;52.034;5.090;2024-02-04T00:29:14;10.70;99.90
69895;DHT22;57172;52.034;5.090;2024-02-04T00:31:41;10.80;99.90
69895;DHT22;57172;52.034;5.090;2024-02-04T00:34:08;10.80;99.90
69895;DHT22;57172;52.034;5.090;2024-02-04T00:36:35;10.80;99.90
69895;DHT22;57172;52.034;5.090;2024-02-04T00:39:02;10.80;99.90
69895;DHT22;57172;52.034;5.090;2024-02-04T00:41:29;10.80;99.90
69895;DHT22;57172;52.034;5.090;2024-02-04T00:43:56;10.80;99.90
69895;DHT22;57172;52.034;5.090;2024-02-04T00:46:23;10.90;99.90
69895;DHT22;57172;52.034;5.090;2024-02-04T00:48:50;10.90;99.90
69895;DHT22;57172;52.034;5.090;2024-02-04T00:51:17;10.90;99.90
69895;DHT22;57172;52.034;5.090;2024-02-04T00:53:46;10.90;99.90
69895;DHT22;57172;52.034;5.090;2024-02-04T00:56:13;10.90;99.90
69895;DHT22;57172;52.034;5.090;2024-02-04T00:58:40;10.90;99.90
69895;DHT22;57172;52.034;5.090;2024-02-04T01:01:07;10.90;99.90
69895;DHT22;57172;52.034;5.090;2024-02-04T01:03:34;10.90;99.90
69895;DHT22;57172;52.034;5.090;2024-02-04T01:06:02;10.90;99.90
69895;DHT22;57172;52.034;5.090;2024-02-04T01:08:28;10.90;99.90
69895;DHT22;57172;52.034;5.090;2024-02-04T01:10:55;10.90;99.90
69895;DHT22;57172;52.034;5.090;2024-02-04T01:13:22;10.90;99.90
69895;DHT22;57172;52.034;5.090;2024-02-04T01:15:49;10.90;99.90
69895;DHT22;57172;52.034;5.090;2024-02-04T01:18:16;10.90;99.90
69895;DHT22;57172;52.034;5.090;2024-02-04T01:20:43;10.80;99.90
69895;DHT22;57172;52.034;5.090;2024-02-04T01:23:10;10.80;99.90
69895;DHT22;57172;52.034;5.090;2024-02-04T01:25:37;10.80;99.90
69895;DHT22;57172;52.034;5.090;2024-02-04T01:28:09;10.80;99.90
69895;DHT22;57172;52.034;5.090;2024-02-04T01:30:36;10.80;99.90
69895;DHT22;57172;52.034;5.090;2024-02-04T01:33:04;10.80;99.90
69895;DHT22;57172;52.034;5.090;2024-02-04T01:35:32;10.80;99.90
69895;DHT22;57172;52.034;5.090;2024-02-04T01:37:59;10.80;99.90
69895;DHT22;57172;52.034;5.090;2024-02-04T01:40:26;10.80;99.90
69895;DHT22;57172;52.034;5.090;2024-02-04T01:42:53;10.80;99.90
69895;DHT22;57172;52.034;5.090;2024-02-04T01:45:20;10.80;99.90
69895;DHT22;57172;52.034;5.090;2024-02-04T01:47:47;10.80;99.90
69895;DHT22;57172;52.034;5.090;2024-02-04T01:50:15;10.80;99.90
69895;DHT22;57172;52.034;5.090;2024-02-04T01:52:44;10.80;99.90
69895;DHT22;57172;52.034;5.090;2024-02-04T01:55:11;10.80;99.90
69895;DHT22;57172;52.034;5.090;2024-02-04T01:57:39;10.80;99.90
69895;DHT22;57172;52.034;5.090;2024-02-04T02:00:08;10.80;99.90
69895;DHT22;57172;52.034;5.090;2024-02-04T02:02:40;10.80;99.90
69895;DHT22;57172;52.034;5.090;2024-02-04T02:05:08;10.80;99.90
69895;DHT22;57172;52.034;5.090;2024-02-04T02:07:36;10.80;99.90
69895;DHT22;57172;52.034;5.090;2024-02-04T02:10:03;10.80;99.90
69895;DHT22;57172;52.034;5.090;2024-02-04T02:12:42;10.80;99.90
69895;DHT22;57172;52.034;5.090;2024-02-04T02:18:14;10.80;99.90
69895;DHT22;57172;52.034;5.090;2024-02-04T02:26:28;10.80;99.90
69895;DHT22;57172;52.034;5.090;2024-02-04T02:28:54;10.80;99.90
69895;DHT22;57172;52.034;5.090;2024-02-04T02:31:21;10.80;99.90
69895;DHT22;57172;52.034;5.090;2024-02-04T02:34:05;10.80;99.90
69895;DHT22;57172;52.034;5.090;2024-02-04T02:36:44;10.70;99.90
69895;DHT22;57172;52.034;5.090;2024-02-04T02:39:18;10.70;99.90
69895;DHT22;57172;52.034;5.090;2024-02-04T02:41:50;10.70;99.90
69895;DHT22;57172;52.034;5.090;2024-02-04T02:44:20;10.70;99.90
69895;DHT22;57172;52.034;5.090;2024-02-04T02:46:48;10.70;99.90
69895;DHT22;57172;52.034;5.090;2024-02-04T02:49:15;10.70;99.90
69895;DHT22;57172;52.034;5.090;2024-02-04T02:51:42;10.70;99.90
69895;DHT22;57172;52.034;5.090;2024-02-04T02:54:09;10.70;99.90
69895;DHT22;57172;52.034;5.090;2024-02-04T02:56:36;10.70;99.90
69895;DHT22;57172;52.034;5.090;2024-02-04T02:59:03;10.70;99.90
69895;DHT22;57172;52.034;5.090;2024-02-04T03:01:31;10.70;99.90
69895;DHT22;57172;52.034;5.090;2024-02-04T03:03:58;10.70;99.90
69895;DHT22;57172;52.034;5.090;2024-02-04T03:06:25;10.70;99.90
69895;DHT22;57172;52.034;5.090;2024-02-04T03:08:52;10.70;99.80
69895;DHT22;57172;52.034;5.090;2024-02-04T03:11:19;10.70;99.80
69895;DHT22;57172;52.034;5.090;2024-02-04T03:13:46;10.60;99.80
69895;DHT22;57172;52.034;5.090;2024-02-04T03:16:13;10.60;99.70
69895;DHT22;57172;52.034;5.090;2024-02-04T03:18:41;10.60;99.60
69895;DHT22;57172;52.034;5.090;2024-02-04T03:21:13;10.60;99.60
69895;DHT22;57172;52.034;5.090;2024-02-04T03:23:41;10.60;99.50
69895;DHT22;57172;52.034;5.090;2024-02-04T03:26:16;10.60;99.40
69895;DHT22;57172;52.034;5.090;2024-02-04T03:28:43;10.60;99.40
69895;DHT22;57172;52.034;5.090;2024-02-04T03:31:10;10.60;99.30
69895;DHT22;57172;52.034;5.090;2024-02-04T03:33:37;10.60;99.40
69895;DHT22;57172;52.034;5.090;2024-02-04T03:36:04;10.60;99.50
69895;DHT22;57172;52.034;5.090;2024-02-04T03:38:31;10.60;99.40
69895;DHT22;57172;52.034;5.090;2024-02-04T03:40:58;10.60;99.30
69895;DHT22;57172;52.034;5.090;2024-02-04T03:43:24;10.50;99.30
69895;DHT22;57172;52.034;5.090;2024-02-04T03:45:51;10.50;99.40
69895;DHT22;57172;52.034;5.090;2024-02-04T03:48:18;10.50;99.30
69895;DHT22;57172;52.034;5.090;2024-02-04T03:50:45;10.50;99.20
69895;DHT22;57172;52.034;5.090;2024-02-04T03:53:12;10.50;99.10
69895;DHT22;57172;52.034;5.090;2024-02-04T03:55:39;10.50;99.10
69895;DHT22;57172;52.034;5.090;2024-02-04T03:58:06;10.50;99.00
69895;DHT22;57172;52.034;5.090;2024-02-04T04:00:33;10.50;99.00
69895;DHT22;57172;52.034;5.090;2024-02-04T04:03:00;10.50;98.90
69895;DHT22;57172;52.034;5.090;2024-02-04T04:05:27;10.50;98.80
69895;DHT22;57172;52.034;5.090;2024-02-04T04:07:54;10.40;98.70
69895;DHT22;57172;52.034;5.090;2024-02-04T04:10:21;10.40;98.80
69895;DHT22;57172;52.034;5.090;2024-02-04T04:12:47;10.30;99.00
69895;DHT22;57172;52.034;5.090;2024-02-04T04:15:14;10.30;99.20
69895;DHT22;57172;52.034;5.090;2024-02-04T04:17:41;10.30;99.30
69895;DHT22;57172;52.034;5.090;2024-02-04T04:20:09;10.30;99.30
69895;DHT22;57172;52.034;5.090;2024-02-04T04:22:38;10.30;99.30
69895;DHT22;57172;52.034;5.090;2024-02-04T04:25:07;10.30;99.40
69895;DHT22;57172;52.034;5.090;2024-02-04T04:27:34;10.30;99.20
69895;DHT22;57172;52.034;5.090;2024-02-04T04:30:00;10.20;99.20
69895;DHT22;57172;52.034;5.090;2024-02-04T04:32:27;10.20;99.30
69895;DHT22;57172;52.034;5.090;2024-02-04T04:34:54;10.10;99.50
69895;DHT22;57172;52.034;5.090;2024-02-04T04:37:22;10.10;99.70
69895;DHT22;57172;52.034;5.090;2024-02-04T04:39:49;10.20;99.90
69895;DHT22;57172;52.034;5.090;2024-02-04T04:42:16;10.20;99.90
69895;DHT22;57172;52.034;5.090;2024-02-04T04:44:43;10.20;99.80
69895;DHT22;57172;52.034;5.090;2024-02-04T04:47:10;10.20;99.80
69895;DHT22;57172;52.034;5.090;2024-02-04T04:49:37;10.20;99.90
69895;DHT22;57172;52.034;5.090;2024-02-04T04:52:04;10.20;99.80
69895;DHT22;57172;52.034;5.090;2024-02-04T04:54:31;10.20;99.90
69895;DHT22;57172;52.034;5.090;2024-02-04T04:56:58;10.20;99.90
69895;DHT22;57172;52.034;5.090;2024-02-04T04:59:25;10.20;99.80
69895;DHT22;57172;52.034;5.090;2024-02-04T05:01:51;10.10;99.80
69895;DHT22;57172;52.034;5.090;2024-02-04T05:04:18;10.10;99.90
69895;DHT22;57172;52.034;5.090;2024-02-04T05:06:45;10.10;99.90
69895;DHT22;57172;52.034;5.090;2024-02-04T05:09:12;10.10;99.90
69895;DHT22;57172;52.034;5.090;2024-02-04T05:11:39;10.10;99.90
69895;DHT22;57172;52.034;5.090;2024-02-04T05:14:06;10.10;99.90
69895;DHT22;57172;52.034;5.090;2024-02-04T05:16:34;10.10;99.90
69895;DHT22;57172;52.034;5.090;2024-02-04T05:19:02;10.10;99.90
69895;DHT22;57172;52.034;5.090;2024-02-04T05:21:29;10.10;99.90
69895;DHT22;57172;52.034;5.090;2024-02-04T05:23:56;10.10;99.90
69895;DHT22;57172;52.034;5.090;2024-02-04T05:26:23;10.10;99.90
69895;DHT22;57172;52.034;5.090;2024-02-04T05:28:50;10.10;99.90
69895;DHT22;57172;52.034;5.090;2024-02-04T05:31:17;10.10;99.90
69895;DHT22;57172;52.034;5.090;2024-02-04T05:33:44;10.20;99.90
69895;DHT22;57172;52.034;5.090;2024-02-04T05:36:11;10.20;99.90
69895;DHT22;57172;52.034;5.090;2024-02-04T05:38:37;10.20;99.90
69895;DHT22;57172;52.034;5.090;2024-02-04T05:41:04;10.20;99.90
69895;DHT22;57172;52.034;5.090;2024-02-04T05:43:31;10.20;99.90
69895;DHT22;57172;52.034;5.090;2024-02-04T05:45:58;10.10;99.90
69895;DHT22;57172;52.034;5.090;2024-02-04T05:48:25;10.10;99.90
69895;DHT22;57172;52.034;5.090;2024-02-04T05:50:52;10.00;99.90
69895;DHT22;57172;52.034;5.090;2024-02-04T05:53:19;10.00;99.90
69895;DHT22;57172;52.034;5.090;2024-02-04T05:55:46;10.00;99.90
69895;DHT22;57172;52.034;5.090;2024-02-04T05:58:16;10.00;99.90
69895;DHT22;57172;52.034;5.090;2024-02-04T06:00:43;10.00;99.90
69895;DHT22;57172;52.034;5.090;2024-02-04T06:03:10;10.00;99.90
69895;DHT22;57172;52.034;5.090;2024-02-04T06:05:36;10.00;99.90
69895;DHT22;57172;52.034;5.090;2024-02-04T06:08:04;10.00;99.90
69895;DHT22;57172;52.034;5.090;2024-02-04T06:10:31;10.10;99.90
69895;DHT22;57172;52.034;5.090;2024-02-04T06:12:57;10.00;99.90
69895;DHT22;57172;52.034;5.090;2024-02-04T06:15:24;10.00;99.90
69895;DHT22;57172;52.034;5.090;2024-02-04T06:17:51;10.00;99.90
69895;DHT22;57172;52.034;5.090;2024-02-04T06:20:18;10.00;99.90
69895;DHT22;57172;52.034;5.090;2024-02-04T06:22:45;10.00;99.90
69895;DHT22;57172;52.034;5.090;2024-02-04T06:25:12;10.00;99.90
69895;DHT22;57172;52.034;5.090;2024-02-04T06:27:39;10.00;99.90
69895;DHT22;57172;52.034;5.090;2024-02-04T06:30:07;10.00;99.90
69895;DHT22;57172;52.034;5.090;2024-02-04T06:32:36;10.00;99.90
69895;DHT22;57172;52.034;5.090;2024-02-04T06:35:04;10.00;99.90
69895;DHT22;57172;52.034;5.090;2024-02-04T06:37:31;10.00;99.90
69895;DHT22;57172;52.034;5.090;2024-02-04T06:39:57;10.00;99.90
69895;DHT22;57172;52.034;5.090;2024-02-04T06:42:24;10.00;99.90
69895;DHT22;57172;52.034;5.090;2024-02-04T06:44:51;10.10;99.90
69895;DHT22;57172;52.034;5.090;2024-02-04T06:47:18;10.10;99.90
69895;DHT22;57172;52.034;5.090;2024-02-04T06:49:45;10.10;99.90
69895;DHT22;57172;52.034;5.090;2024-02-04T06:52:12;10.10;99.90
69895;DHT22;57172;52.034;5.090;2024-02-04T06:54:39;10.20;99.90
69895;DHT22;57172;52.034;5.090;2024-02-04T06:57:07;10.20;99.90
69895;DHT22;57172;52.034;5.090;2024-02-04T06:59:33;10.20;99.90
69895;DHT22;57172;52.034;5.090;2024-02-04T07:02:00;10.30;99.90
69895;DHT22;57172;52.034;5.090;2024-02-04T07:04:27;10.30;99.90
69895;DHT22;57172;52.034;5.090;2024-02-04T07:06:54;10.30;99.90
69895;DHT22;57172;52.034;5.090;2024-02-04T07:09:21;10.40;99.90
69895;DHT22;57172;52.034;5.090;2024-02-04T07:11:48;10.40;99.90
69895;DHT22;57172;52.034;5.090;2024-02-04T07:14:15;10.40;99.90
69895;DHT22;57172;52.034;5.090;2024-02-04T07:16:42;10.40;99.90
69895;DHT22;57172;52.034;5.090;2024-02-04T07:19:09;10.50;99.90
69895;DHT22;57172;52.034;5.090;2024-02-04T07:21:36;10.50;99.90
69895;DHT22;57172;52.034;5.090;2024-02-04T07:24:03;10.50;99.90
69895;DHT22;57172;52.034;5.090;2024-02-04T07:26:30;10.50;99.90
69895;DHT22;57172;52.034;5.090;2024-02-04T07:28:57;10.50;99.90
69895;DHT22;57172;52.034;5.090;2024-02-04T07:31:23;10.50;99.90
69895;DHT22;57172;52.034;5.090;2024-02-04T07:33:50;10.60;99.90
69895;DHT22;57172;52.034;5.090;2024-02-04T07:36:17;10.60;99.90
69895;DHT22;57172;52.034;5.090;2024-02-04T07:38:45;10.60;99.90
69895;DHT22;57172;52.034;5.090;2024-02-04T07:41:14;10.60;99.90
69895;DHT22;57172;52.034;5.090;2024-02-04T07:43:41;10.60;99.90
69895;DHT22;57172;52.034;5.090;2024-02-04T07:46:10;10.60;99.90
69895;DHT22;57172;52.034;5.090;2024-02-04T07:48:38;10.60;99.90
69895;DHT22;57172;52.034;5.090;2024-02-04T07:51:06;10.60;99.90
69895;DHT22;57172;52.034;5.090;2024-02-04T07:53:33;10.60;99.90
69895;DHT22;57172;52.034;5.090;2024-02-04T07:56:01;10.60;99.90
69895;DHT22;57172;52.034;5.090;2024-02-04T07:58:29;10.60;99.90
69895;DHT22;57172;52.034;5.090;2024-02-04T08:00:56;10.50;99.90
69895;DHT22;57172;52.034;5.090;2024-02-04T08:03:23;10.50;99.90
69895;DHT22;57172;52.034;5.090;2024-02-04T08:05:50;10.40;99.90
69895;DHT22;57172;52.034;5.090;2024-02-04T08:08:17;10.40;99.90
69895;DHT22;57172;52.034;5.090;2024-02-04T08:10:44;10.40;99.90
69895;DHT22;57172;52.034;5.090;2024-02-04T08:13:11;10.40;99.90
69895;DHT22;57172;52.034;5.090;2024-02-04T08:15:38;10.40;99.90
69895;DHT22;57172;52.034;5.090;2024-02-04T08:18:05;10.40;99.90
69895;DHT22;57172;52.034;5.090;2024-02-04T08:20:34;10.40;99.90
69895;DHT22;57172;52.034;5.090;2024-02-04T08:23:01;10.40;99.90
69895;DHT22;57172;52.034;5.090;2024-02-04T08:25:28;10.50;99.90
69895;DHT22;57172;52.034;5.090;2024-02-04T08:27:55;10.50;99.90
69895;DHT22;57172;52.034;5.090;2024-02-04T08:30:25;10.50;99.90
69895;DHT22;57172;52.034;5.090;2024-02-04T08:32:52;10.50;99.90
69895;DHT22;57172;52.034;5.090;2024-02-04T08:35:18;10.60;99.90
69895;DHT22;57172;52.034;5.090;2024-02-04T08:37:45;10.60;99.90
69895;DHT22;57172;52.034;5.090;2024-02-04T08:40:13;10.60;99.90
69895;DHT22;57172;52.034;5.090;2024-02-04T08:42:40;10.70;99.90
69895;DHT22;57172;52.034;5.090;2024-02-04T08:45:07;10.70;99.90
69895;DHT22;57172;52.034;5.090;2024-02-04T08:47:34;10.80;99.90
69895;DHT22;57172;52.034;5.090;2024-02-04T08:50:01;10.80;99.90
69895;DHT22;57172;52.034;5.090;2024-02-04T08:52:28;10.80;99.90
69895;DHT22;57172;52.034;5.090;2024-02-04T08:54:55;10.90;99.90
69895;DHT22;57172;52.034;5.090;2024-02-04T08:57:23;10.90;99.90
69895;DHT22;57172;52.034;5.090;2024-02-04T08:59:49;10.90;99.90
69895;DHT22;57172;52.034;5.090;2024-02-04T09:02:16;11.00;99.90
69895;DHT22;57172;52.034;5.090;2024-02-04T09:04:44;11.00;99.90
69895;DHT22;57172;52.034;5.090;2024-02-04T09:07:11;11.00;99.90
69895;DHT22;57172;52.034;5.090;2024-02-04T09:09:38;11.00;99.90
69895;DHT22;57172;52.034;5.090;2024-02-04T09:12:05;11.00;99.90
69895;DHT22;57172;52.034;5.090;2024-02-04T09:14:32;11.10;99.90
69895;DHT22;57172;52.034;5.090;2024-02-04T09:17:05;11.10;99.90
69895;DHT22;57172;52.034;5.090;2024-02-04T09:19:33;11.10;99.80
69895;DHT22;57172;52.034;5.090;2024-02-04T09:22:03;11.10;99.70
69895;DHT22;57172;52.034;5.090;2024-02-04T09:24:30;11.20;99.40
69895;DHT22;57172;52.034;5.090;2024-02-04T09:26:57;11.20;99.50
69895;DHT22;57172;52.034;5.090;2024-02-04T09:29:24;11.20;99.40
69895;DHT22;57172;52.034;5.090;2024-02-04T09:31:51;11.20;99.30
69895;DHT22;57172;52.034;5.090;2024-02-04T09:34:20;11.20;99.20
69895;DHT22;57172;52.034;5.090;2024-02-04T09:36:48;11.30;99.30
69895;DHT22;57172;52.034;5.090;2024-02-04T09:39:15;11.30;99.40
69895;DHT22;57172;52.034;5.090;2024-02-04T09:41:43;11.40;99.40
69895;DHT22;57172;52.034;5.090;2024-02-04T09:44:12;11.40;99.10
69895;DHT22;57172;52.034;5.090;2024-02-04T09:46:43;11.40;98.80
69895;DHT22;57172;52.034;5.090;2024-02-04T09:49:11;11.50;98.80
69895;DHT22;57172;52.034;5.090;2024-02-04T09:51:40;11.50;98.60
69895;DHT22;57172;52.034;5.090;2024-02-04T09:54:10;11.50;98.40
69895;DHT22;57172;52.034;5.090;2024-02-04T09:56:38;11.50;98.20
69895;DHT22;57172;52.034;5.090;2024-02-04T09:59:07;11.60;98.00
69895;DHT22;57172;52.034;5.090;2024-02-04T10:01:35;11.60;97.70
69895;DHT22;57172;52.034;5.090;2024-02-04T10:04:02;11.60;97.60
69895;DHT22;57172;52.034;5.090;2024-02-04T10:06:31;11.60;96.90
69895;DHT22;57172;52.034;5.090;2024-02-04T10:08:59;11.60;96.50
69895;DHT22;57172;52.034;5.090;2024-02-04T10:11:27;11.50;96.50
69895;DHT22;57172;52.034;5.090;2024-02-04T10:13:54;11.60;96.60
69895;DHT22;57172;52.034;5.090;2024-02-04T10:16:21;11.60;96.60
69895;DHT22;57172;52.034;5.090;2024-02-04T10:18:48;11.60;96.50
69895;DHT22;57172;52.034;5.090;2024-02-04T10:21:20;11.60;96.40
69895;DHT22;57172;52.034;5.090;2024-02-04T10:23:48;11.70;96.10
69895;DHT22;57172;52.034;5.090;2024-02-04T10:26:17;11.60;95.50
69895;DHT22;57172;52.034;5.090;2024-02-04T10:28:47;11.70;95.30
69895;DHT22;57172;52.034;5.090;2024-02-04T10:31:15;11.50;95.20
69895;DHT22;57172;52.034;5.090;2024-02-04T10:33:42;11.40;95.20
69895;DHT22;57172;52.034;5.090;2024-02-04T10:36:10;11.30;95.80
69895;DHT22;57172;52.034;5.090;2024-02-04T10:38:38;11.20;96.50
69895;DHT22;57172;52.034;5.090;2024-02-04T10:41:06;11.10;96.90
69895;DHT22;57172;52.034;5.090;2024-02-04T10:43:34;11.00;97.30
69895;DHT22;57172;52.034;5.090;2024-02-04T10:46:08;11.00;97.60
69895;DHT22;57172;52.034;5.090;2024-02-04T10:48:37;10.90;98.20
69895;DHT22;57172;52.034;5.090;2024-02-04T10:51:15;10.90;98.40
69895;DHT22;57172;52.034;5.090;2024-02-04T10:53:44;10.80;98.70
69895;DHT22;57172;52.034;5.090;2024-02-04T10:56:22;10.80;99.10
69895;DHT22;57172;52.034;5.090;2024-02-04T10:58:52;10.80;99.40
69895;DHT22;57172;52.034;5.090;2024-02-04T11:01:21;10.80;99.80
69895;DHT22;57172;52.034;5.090;2024-02-04T11:03:50;10.80;99.90
69895;DHT22;57172;52.034;5.090;2024-02-04T11:06:19;10.80;99.90
69895;DHT22;57172;52.034;5.090;2024-02-04T11:08:47;10.80;99.90
69895;DHT22;57172;52.034;5.090;2024-02-04T11:11:14;10.80;99.90
69895;DHT22;57172;52.034;5.090;2024-02-04T11:13:44;10.80;99.90
69895;DHT22;57172;52.034;5.090;2024-02-04T11:27:35;11.00;99.90
69895;DHT22;57172;52.034;5.090;2024-02-04T11:30:03;11.00;99.90
69895;DHT22;57172;52.034;5.090;2024-02-04T11:32:31;11.00;99.90
69895;DHT22;57172;52.034;5.090;2024-02-04T11:34:58;11.10;99.90
69895;DHT22;57172;52.034;5.090;2024-02-04T11:37:28;11.10;99.90
69895;DHT22;57172;52.034;5.090;2024-02-04T11:39:57;11.10;99.90
69895;DHT22;57172;52.034;5.090;2024-02-04T11:42:25;11.10;99.90
69895;DHT22;57172;52.034;5.090;2024-02-04T11:45:06;11.20;99.90
69895;DHT22;57172;52.034;5.090;2024-02-04T11:47:34;11.20;99.90
69895;DHT22;57172;52.034;5.090;2024-02-04T11:50:05;11.20;99.90
69895;DHT22;57172;52.034;5.090;2024-02-04T11:52:32;11.30;99.90
69895;DHT22;57172;52.034;5.090;2024-02-04T11:54:59;11.30;99.70
69895;DHT22;57172;52.034;5.090;2024-02-04T11:57:27;11.30;99.30
69895;DHT22;57172;52.034;5.090;2024-02-04T11:59:54;11.30;99.20
69895;DHT22;57172;52.034;5.090;2024-02-04T12:02:22;11.30;99.30
69895;DHT22;57172;52.034;5.090;2024-02-04T12:04:48;11.30;99.10
69895;DHT22;57172;52.034;5.090;2024-02-04T12:07:16;11.40;99.10
69895;DHT22;57172;52.034;5.090;2024-02-04T12:09:44;11.40;99.10
69895;DHT22;57172;52.034;5.090;2024-02-04T12:12:11;11.40;99.20
69895;DHT22;57172;52.034;5.090;2024-02-04T12:14:39;11.50;98.70
69895;DHT22;57172;52.034;5.090;2024-02-04T12:17:10;11.50;98.60
69895;DHT22;57172;52.034;5.090;2024-02-04T12:19:37;11.60;98.80
69895;DHT22;57172;52.034;5.090;2024-02-04T12:22:11;11.60;98.90
69895;DHT22;57172;52.034;5.090;2024-02-04T12:24:38;11.70;98.80
69895;DHT22;57172;52.034;5.090;2024-02-04T12:27:06;11.80;98.50
69895;DHT22;57172;52.034;5.090;2024-02-04T12:29:34;11.80;97.90
69895;DHT22;57172;52.034;5.090;2024-02-04T12:32:02;11.80;98.50
69895;DHT22;57172;52.034;5.090;2024-02-04T12:34:33;12.00;98.60
69895;DHT22;57172;52.034;5.090;2024-02-04T12:37:01;12.00;97.60
69895;DHT22;57172;52.034;5.090;2024-02-04T12:39:29;12.00;96.90
69895;DHT22;57172;52.034;5.090;2024-02-04T12:41:58;12.00;96.80
69895;DHT22;57172;52.034;5.090;2024-02-04T12:44:26;12.00;95.90
69895;DHT22;57172;52.034;5.090;2024-02-04T12:46:53;11.90;95.40
69895;DHT22;57172;52.034;5.090;2024-02-04T12:49:21;11.90;95.50
69895;DHT22;57172;52.034;5.090;2024-02-04T12:51:49;11.80;95.40
69895;DHT22;57172;52.034;5.090;2024-02-04T12:54:19;11.80;95.20
69895;DHT22;57172;52.034;5.090;2024-02-04T12:56:54;11.70;95.40
69895;DHT22;57172;52.034;5.090;2024-02-04T12:59:27;11.70;95.50
69895;DHT22;57172;52.034;5.090;2024-02-04T13:02:06;11.70;95.60
69895;DHT22;57172;52.034;5.090;2024-02-04T13:04:38;11.70;95.70
69895;DHT22;57172;52.034;5.090;2024-02-04T13:07:10;11.80;95.40
69895;DHT22;57172;52.034;5.090;2024-02-04T13:09:43;11.80;95.40
69895;DHT22;57172;52.034;5.090;2024-02-04T13:12:15;11.80;95.00
69895;DHT22;57172;52.034;5.090;2024-02-04T13:14:42;11.80;95.20
69895;DHT22;57172;52.034;5.090;2024-02-04T13:17:11;11.80;95.00
69895;DHT22;57172;52.034;5.090;2024-02-04T13:19:38;11.80;94.80
69895;DHT22;57172;52.034;5.090;2024-02-04T13:22:06;11.90;94.70
69895;DHT22;57172;52.034;5.090;2024-02-04T13:24:34;11.80;94.50
69895;DHT22;57172;52.034;5.090;2024-02-04T13:27:01;11.80;94.40
69895;DHT22;57172;52.034;5.090;2024-02-04T13:29:30;11.80;94.20
69895;DHT22;57172;52.034;5.090;2024-02-04T13:31:57;11.80;94.40
69895;DHT22;57172;52.034;5.090;2024-02-04T13:34:24;11.80;94.10
69895;DHT22;57172;52.034;5.090;2024-02-04T13:36:51;11.80;94.10
69895;DHT22;57172;52.034;5.090;2024-02-04T13:39:18;11.80;94.20
69895;DHT22;57172;52.034;5.090;2024-02-04T13:41:45;11.80;94.20
69895;DHT22;57172;52.034;5.090;2024-02-04T13:44:12;11.80;94.20
69895;DHT22;57172;52.034;5.090;2024-02-04T13:46:40;11.80;94.10
69895;DHT22;57172;52.034;5.090;2024-02-04T13:49:10;11.80;94.00
69895;DHT22;57172;52.034;5.090;2024-02-04T13:51:39;11.80;94.00
69895;DHT22;57172;52.034;5.090;2024-02-04T13:54:11;11.70;94.20
69895;DHT22;57172;52.034;5.090;2024-02-04T13:56:44;11.70;94.40
69895;DHT22;57172;52.034;5.090;2024-02-04T13:59:11;11.80;94.30
69895;DHT22;57172;52.034;5.090;2024-02-04T14:01:37;11.80;94.30
69895;DHT22;57172;52.034;5.090;2024-02-04T14:04:04;11.80;94.20
69895;DHT22;57172;52.034;5.090;2024-02-04T14:06:32;11.90;93.90
69895;DHT22;57172;52.034;5.090;2024-02-04T14:08:59;11.90;93.70
69895;DHT22;57172;52.034;5.090;2024-02-04T14:11:26;11.90;93.90
69895;DHT22;57172;52.034;5.090;2024-02-04T14:13:53;12.00;93.80
69895;DHT22;57172;52.034;5.090;2024-02-04T14:16:20;12.00;93.60
69895;DHT22;57172;52.034;5.090;2024-02-04T14:18:46;12.00;93.20
69895;DHT22;57172;52.034;5.090;2024-02-04T14:21:13;12.10;93.30
69895;DHT22;57172;52.034;5.090;2024-02-04T14:23:41;12.10;93.40
69895;DHT22;57172;52.034;5.090;2024-02-04T14:26:17;12.10;93.30
69895;DHT22;57172;52.034;5.090;2024-02-04T14:28:44;12.10;93.10
69895;DHT22;57172;52.034;5.090;2024-02-04T14:31:11;12.10;92.70
69895;DHT22;57172;52.034;5.090;2024-02-04T14:33:38;12.10;92.70
69895;DHT22;57172;52.034;5.090;2024-02-04T14:36:07;12.10;92.70
69895;DHT22;57172;52.034;5.090;2024-02-04T14:38:34;12.10;92.50
69895;DHT22;57172;52.034;5.090;2024-02-04T14:41:04;12.10;92.40
69895;DHT22;57172;52.034;5.090;2024-02-04T14:43:31;12.20;92.10
69895;DHT22;57172;52.034;5.090;2024-02-04T14:45:58;12.10;92.10
69895;DHT22;57172;52.034;5.090;2024-02-04T14:48:26;12.10;92.00
69895;DHT22;57172;52.034;5.090;2024-02-04T14:50:53;12.10;92.00
69895;DHT22;57172;52.034;5.090;2024-02-04T14:53:20;12.10;92.00
69895;DHT22;57172;52.034;5.090;2024-02-04T14:55:47;12.20;91.90
69895;DHT22;57172;52.034;5.090;2024-02-04T14:58:14;12.10;91.60
69895;DHT22;57172;52.034;5.090;2024-02-04T15:00:41;12.10;91.70
69895;DHT22;57172;52.034;5.090;2024-02-04T15:03:09;12.10;91.70
69895;DHT22;57172;52.034;5.090;2024-02-04T15:05:36;12.10;91.70
69895;DHT22;57172;52.034;5.090;2024-02-04T15:08:03;12.10;91.50
69895;DHT22;57172;52.034;5.090;2024-02-04T15:10:31;12.00;91.70
69895;DHT22;57172;52.034;5.090;2024-02-04T15:12:58;12.10;91.60
69895;DHT22;57172;52.034;5.090;2024-02-04T15:15:25;12.00;91.60
69895;DHT22;57172;52.034;5.090;2024-02-04T15:17:52;12.00;91.60
69895;DHT22;57172;52.034;5.090;2024-02-04T15:20:20;12.00;91.40
69895;DHT22;57172;52.034;5.090;2024-02-04T15:22:48;12.00;91.30
69895;DHT22;57172;52.034;5.090;2024-02-04T15:25:16;12.00;91.20
69895;DHT22;57172;52.034;5.090;2024-02-04T15:27:45;12.00;91.30
69895;DHT22;57172;52.034;5.090;2024-02-04T15:30:15;11.90;91.40
69895;DHT22;57172;52.034;5.090;2024-02-04T15:32:42;11.90;91.40
69895;DHT22;57172;52.034;5.090;2024-02-04T15:35:10;11.90;91.60
69895;DHT22;57172;52.034;5.090;2024-02-04T15:37:37;11.90;91.60
69895;DHT22;57172;52.034;5.090;2024-02-04T15:40:05;11.90;91.40
69895;DHT22;57172;52.034;5.090;2024-02-04T15:42:32;11.80;91.60
69895;DHT22;57172;52.034;5.090;2024-02-04T15:44:59;11.90;91.70
69895;DHT22;57172;52.034;5.090;2024-02-04T15:47:27;11.90;91.50
69895;DHT22;57172;52.034;5.090;2024-02-04T15:49:56;11.90;91.40
69895;DHT22;57172;52.034;5.090;2024-02-04T15:52:24;11.80;91.30
69895;DHT22;57172;52.034;5.090;2024-02-04T15:54:51;11.80;91.40